Fond du Lac, WI

1:17 PM CST on November 23, 2014 (GMT -0600)
Hunters Grove | Change Station
CLOSE
Current Station
Personal Weather Station
Location: Fond Du Lac, WI
Elevation: 764 ft
Nearby Weather Stations

Elev 764 ft 43.79 °N, 88.39 °W | Updated 15 minutes ago

Rain
Rain
49.3 °F
Feels Like 47 °F
N
5.8
Wind Variable Wind from WSW

Today
High -- | Low -- °F
--% Chance of Precip.
Yesterday
High -- | Low -- °F
Precip. -- in
6:58 AM 4:21 PM
New Moon, 2% visible
Pressure 29.52 in
Visibility 7.0 miles
Clouds Mostly Cloudy 800 ft
Mostly Cloudy 6500 ft
Overcast 8000 ft
Windchill 47 °F
Dew Point 47 °F
Humidity 91%
Rainfall 0.04 in
Snow Depth Not available.
UV 1 out of 12
Pollen .10 out of 12
Air Quality Not available.
Flu Activity Not available.
METAR KFLD 231853Z AUTO 18015KT 7SM -RA BKN008 BKN065 OVC080 09/08 A2951 RMK AO2 SLP996 P0003 T00940078

More Conditions Fewer Conditions

Pressure 29.52 in
Visibility 7.0 miles
Clouds Mostly Cloudy 800 ft
Mostly Cloudy 6500 ft
Overcast 8000 ft
Windchill 47 °F
Dew Point 47 °F
Humidity 91%
Rainfall 0.04 in
Snow Depth Not available.
UV 1 out of 12
Pollen .10 out of 12
Air Quality Not available.
Flu Activity Not available.
METAR KFLD 231853Z AUTO 18015KT 7SM -RA BKN008 BKN065 OVC080 09/08 A2951 RMK AO2 SLP996 P0003 T00940078

More Conditions Fewer Conditions

10-Day Weather Forecast

Almanac

Astronomy

Nov. 23, 2014 Rise Set
Actual Time
Civil Twilight
Nautical Twilight
Astronomical Twilight
Moon
Length of Visible Light
Length of Day
Tomorrow will be .
, % of the Moon is Illuminated

Today's Extremes

State Highs State Lows

Community

WunderPhotos

Upload Photos

1,773,141 photos uploaded!

WunderBlogs® & News

Nearby

Air Quality

  Air Quality AQ Index Pollutant
Not available.

Snow Depth

Station Depth Elevation

Earthquake Activity

City Distance Mag. Time & Date
Minimum magnitude displayed is 2.5.

Coastal Water Temperatures

Place Temperature

Nearby Weather Stations